createdAt,value
2022-12-03T00:00:33.461Z,1.38
2022-12-03T00:03:00.672Z,1.38
2022-12-03T00:05:27.960Z,1.39
2022-12-03T00:07:55.109Z,1.39
2022-12-03T00:10:22.262Z,1.40
2022-12-03T00:12:49.251Z,1.40
2022-12-03T00:15:16.313Z,1.41
2022-12-03T00:17:43.295Z,1.39
2022-12-03T00:20:17.663Z,1.37
2022-12-03T00:22:44.746Z,1.39
2022-12-03T00:25:11.876Z,1.42
2022-12-03T00:27:39.047Z,1.42
2022-12-03T00:30:07.234Z,1.43
2022-12-03T00:32:34.318Z,1.40
2022-12-03T00:35:01.325Z,1.40
2022-12-03T00:37:28.273Z,1.43
2022-12-03T00:39:55.330Z,1.41
2022-12-03T00:42:22.263Z,1.41
2022-12-03T00:44:49.353Z,1.43
2022-12-03T00:47:16.435Z,1.40
2022-12-03T00:49:43.459Z,1.42
2022-12-03T00:52:10.406Z,1.42
2022-12-03T00:54:37.350Z,1.40
2022-12-03T00:57:04.334Z,1.39
2022-12-03T00:59:31.516Z,1.39
2022-12-03T01:01:58.663Z,1.40
2022-12-03T01:04:26.790Z,1.40
2022-12-03T01:06:53.856Z,1.39
2022-12-03T01:09:20.806Z,1.37
2022-12-03T01:11:47.850Z,1.36
2022-12-03T01:14:17.463Z,1.38
2022-12-03T01:16:44.961Z,1.37
2022-12-03T01:19:16.620Z,1.38
2022-12-03T01:21:50.281Z,1.36
2022-12-03T01:24:19.761Z,1.36
2022-12-03T01:26:47.090Z,1.38
2022-12-03T01:29:15.053Z,1.39
2022-12-03T01:32:00.582Z,1.38
2022-12-03T01:34:27.633Z,1.37
2022-12-03T01:36:54.840Z,1.37
2022-12-03T01:39:21.929Z,1.38
2022-12-03T01:41:50.832Z,1.39
2022-12-03T01:44:24.758Z,1.40
2022-12-03T01:46:53.715Z,1.38
2022-12-03T01:49:25.481Z,1.39
2022-12-03T01:51:53.688Z,1.41
2022-12-03T01:54:26.379Z,1.41
2022-12-03T01:56:54.534Z,1.42
2022-12-03T01:59:33.904Z,1.43
2022-12-03T02:02:11.884Z,1.44
2022-12-03T02:04:39.298Z,1.42
2022-12-03T02:07:26.175Z,1.43
2022-12-03T02:09:55.508Z,1.45
2022-12-03T02:12:31.000Z,1.43
2022-12-03T02:14:58.541Z,1.45
2022-12-03T02:17:26.753Z,1.45
2022-12-03T02:19:55.462Z,1.46
2022-12-03T02:22:41.051Z,1.48
2022-12-03T02:25:12.042Z,1.47
2022-12-03T02:27:39.553Z,1.46
2022-12-03T02:30:08.079Z,1.47
2022-12-03T02:32:35.373Z,1.48
2022-12-03T02:35:02.484Z,1.48
2022-12-03T02:37:38.682Z,1.52
2022-12-03T02:40:10.837Z,1.53
2022-12-03T02:42:37.962Z,1.53
2022-12-03T02:45:21.188Z,1.55
2022-12-03T02:47:54.064Z,1.55
2022-12-03T02:50:26.727Z,1.55
2022-12-03T02:52:56.504Z,1.54
2022-12-03T02:55:24.810Z,1.55
2022-12-03T02:57:52.402Z,1.58
2022-12-03T03:00:20.722Z,1.56
2022-12-03T03:02:47.977Z,1.55
2022-12-03T03:05:16.202Z,1.60
2022-12-03T03:07:43.713Z,1.58
2022-12-03T03:10:14.814Z,1.62
2022-12-03T03:12:41.856Z,1.62
2022-12-03T03:15:10.635Z,1.63
2022-12-03T03:17:38.559Z,1.64
2022-12-03T03:20:06.931Z,1.65
2022-12-03T03:22:39.654Z,1.63
2022-12-03T03:25:09.881Z,1.64
2022-12-03T03:27:38.108Z,1.63
2022-12-03T03:30:06.163Z,1.63
2022-12-03T03:32:34.034Z,1.63
2022-12-03T03:35:01.450Z,1.63
2022-12-03T03:37:29.339Z,1.63
2022-12-03T03:39:56.614Z,1.65
2022-12-03T03:42:24.489Z,1.65
2022-12-03T03:44:51.989Z,1.68
2022-12-03T03:47:20.384Z,1.68
2022-12-03T03:49:49.825Z,1.67
2022-12-03T03:52:18.775Z,1.70
2022-12-03T03:54:46.473Z,1.70
2022-12-03T03:57:13.635Z,1.68
2022-12-03T03:59:41.286Z,1.69
2022-12-03T04:02:20.207Z,1.70
2022-12-03T04:04:48.236Z,1.68
2022-12-03T04:07:16.717Z,1.70
2022-12-03T04:09:44.325Z,1.69
2022-12-03T04:12:32.947Z,1.70
2022-12-03T04:14:59.920Z,1.70
2022-12-03T04:17:27.296Z,1.71
2022-12-03T04:19:54.580Z,1.71
2022-12-03T04:22:40.206Z,1.69
2022-12-03T04:25:29.998Z,1.70
2022-12-03T04:28:15.793Z,1.70
2022-12-03T04:30:42.891Z,1.70
2022-12-03T04:33:28.298Z,1.70
2022-12-03T04:35:55.297Z,1.72
2022-12-03T04:38:22.711Z,1.74
2022-12-03T04:41:01.764Z,1.75
2022-12-03T04:43:29.337Z,1.71
2022-12-03T04:45:56.544Z,1.74
2022-12-03T04:48:24.201Z,1.75
2022-12-03T04:50:51.727Z,1.74
2022-12-03T04:53:19.161Z,1.75
2022-12-03T04:55:46.206Z,1.74
2022-12-03T04:58:13.375Z,1.76
2022-12-03T05:00:40.592Z,1.74
2022-12-03T05:03:07.781Z,1.73
2022-12-03T05:05:34.766Z,1.74
2022-12-03T05:08:02.063Z,1.74
2022-12-03T05:10:29.195Z,1.73
2022-12-03T05:12:56.204Z,1.75
2022-12-03T05:15:23.317Z,1.73
2022-12-03T05:17:50.401Z,1.72
2022-12-03T05:20:35.834Z,1.71
2022-12-03T05:23:02.977Z,1.71
2022-12-03T05:25:30.142Z,1.71
2022-12-03T05:27:57.122Z,1.69
2022-12-03T05:30:24.560Z,1.70
2022-12-03T05:32:51.728Z,1.71
2022-12-03T05:35:18.682Z,1.68
2022-12-03T05:37:45.850Z,1.67
2022-12-03T05:40:13.638Z,1.65
2022-12-03T05:42:57.132Z,1.65
2022-12-03T05:45:32.931Z,1.64
2022-12-03T05:48:01.211Z,1.60
2022-12-03T05:50:31.256Z,1.62
2022-12-03T05:52:59.026Z,1.61
2022-12-03T05:55:27.509Z,1.59
2022-12-03T05:57:55.124Z,1.58
2022-12-03T06:00:23.912Z,1.58
2022-12-03T06:02:51.402Z,1.58
2022-12-03T06:05:22.298Z,1.58
2022-12-03T06:07:50.961Z,1.57
2022-12-03T06:10:23.524Z,1.60
2022-12-03T06:12:50.864Z,1.59
2022-12-03T06:15:18.887Z,1.56
2022-12-03T06:17:46.445Z,1.57
2022-12-03T06:20:16.546Z,1.60
2022-12-03T06:22:43.664Z,1.58
2022-12-03T06:25:11.519Z,1.60
2022-12-03T06:27:38.883Z,1.59
2022-12-03T06:30:08.760Z,1.57
2022-12-03T06:32:36.164Z,1.56
2022-12-03T06:35:03.705Z,1.59
2022-12-03T06:37:30.862Z,1.58
2022-12-03T06:39:58.008Z,1.58
2022-12-03T06:42:25.303Z,1.59
2022-12-03T06:44:52.877Z,1.59
2022-12-03T06:47:20.235Z,1.60
2022-12-03T06:49:47.282Z,1.57
2022-12-03T06:52:14.316Z,1.57
2022-12-03T06:54:41.408Z,1.54
2022-12-03T06:57:08.760Z,1.50
2022-12-03T06:59:37.762Z,1.55
2022-12-03T07:02:05.406Z,1.56
2022-12-03T07:04:32.477Z,1.56
2022-12-03T07:06:59.721Z,1.55
2022-12-03T07:09:26.985Z,1.52
2022-12-03T07:11:53.875Z,1.52
2022-12-03T07:14:21.218Z,1.52
2022-12-03T07:16:48.426Z,1.51
2022-12-03T07:19:33.492Z,1.52
2022-12-03T07:22:00.849Z,1.49
2022-12-03T07:24:28.100Z,1.47
2022-12-03T07:26:55.284Z,1.47
2022-12-03T07:29:22.555Z,1.45
2022-12-03T07:31:50.219Z,1.43
2022-12-03T07:34:17.669Z,1.43
2022-12-03T07:36:45.024Z,1.41
2022-12-03T07:39:12.238Z,1.42
2022-12-03T07:41:39.273Z,1.43
2022-12-03T07:44:12.404Z,1.44
2022-12-03T07:46:41.765Z,1.43
2022-12-03T07:49:09.180Z,1.43
2022-12-03T07:51:36.283Z,1.43
2022-12-03T07:54:03.548Z,1.42
2022-12-03T07:56:30.624Z,1.42
2022-12-03T07:58:57.916Z,1.43
2022-12-03T08:01:25.272Z,1.40
2022-12-03T08:03:52.495Z,1.39
2022-12-03T08:06:19.674Z,1.39
2022-12-03T08:08:46.747Z,1.40
2022-12-03T08:11:15.266Z,1.42
2022-12-03T08:13:42.797Z,1.42
2022-12-03T08:16:17.281Z,1.42
2022-12-03T08:18:45.391Z,1.44
2022-12-03T08:21:14.976Z,1.42
2022-12-03T08:23:42.230Z,1.40
2022-12-03T08:26:28.215Z,1.42
2022-12-03T08:28:55.609Z,1.43
2022-12-03T08:31:32.965Z,1.45
2022-12-03T08:34:40.757Z,1.43
2022-12-03T08:37:18.386Z,1.42
2022-12-03T08:39:50.741Z,1.39
2022-12-03T08:42:44.393Z,1.37
2022-12-03T08:45:29.803Z,1.37
2022-12-03T08:47:58.540Z,1.37
2022-12-03T08:50:36.357Z,1.37
2022-12-03T08:53:31.515Z,1.36
2022-12-03T08:56:14.196Z,1.35
2022-12-03T08:58:44.282Z,1.35
2022-12-03T09:01:11.657Z,1.36
2022-12-03T09:03:46.675Z,1.34
2022-12-03T09:06:13.821Z,1.34
2022-12-03T09:08:40.881Z,1.34
2022-12-03T09:11:08.073Z,1.32
2022-12-03T09:13:35.159Z,1.28
2022-12-03T09:16:02.420Z,1.28
2022-12-03T09:18:29.579Z,1.25
2022-12-03T09:20:57.383Z,1.23
2022-12-03T09:23:24.639Z,1.21
2022-12-03T09:25:51.800Z,1.24
2022-12-03T09:28:18.972Z,1.25
2022-12-03T09:30:46.031Z,1.27
2022-12-03T09:33:14.291Z,1.28
2022-12-03T09:35:41.627Z,1.26
2022-12-03T09:38:08.752Z,1.19
2022-12-03T09:40:35.912Z,1.15
2022-12-03T09:43:03.498Z,1.14
2022-12-03T09:45:30.469Z,1.14
2022-12-03T09:47:57.672Z,1.19
2022-12-03T09:50:27.332Z,1.20
2022-12-03T09:52:57.344Z,1.22
2022-12-03T09:55:28.203Z,1.26
2022-12-03T09:57:56.826Z,1.20
2022-12-03T10:00:28.172Z,1.18
2022-12-03T10:02:58.848Z,1.14
2022-12-03T10:05:26.077Z,1.13
2022-12-03T10:07:53.661Z,1.12
2022-12-03T10:10:22.686Z,1.14
2022-12-03T10:12:51.749Z,1.15
2022-12-03T10:15:22.802Z,1.17
2022-12-03T10:17:52.139Z,1.19
2022-12-03T10:20:21.706Z,1.15
2022-12-03T10:22:49.188Z,1.14
2022-12-03T10:25:19.555Z,1.11
2022-12-03T10:27:57.234Z,1.09
2022-12-03T10:30:27.183Z,1.12
2022-12-03T10:32:56.290Z,1.14
2022-12-03T10:35:38.136Z,1.18
2022-12-03T10:38:22.645Z,1.10
2022-12-03T10:40:50.710Z,1.02
2022-12-03T10:43:23.915Z,1.00
2022-12-03T10:46:12.816Z,1.01
2022-12-03T10:48:39.891Z,1.03
2022-12-03T10:51:23.291Z,1.02
2022-12-03T10:53:51.713Z,0.99
2022-12-03T10:56:25.467Z,0.94
2022-12-03T10:58:53.378Z,0.95
2022-12-03T11:01:23.204Z,0.94
2022-12-03T11:03:51.321Z,0.92
2022-12-03T11:06:21.798Z,0.90
2022-12-03T11:08:57.537Z,0.90
2022-12-03T11:11:31.718Z,0.89
2022-12-03T11:14:00.861Z,0.86
2022-12-03T11:16:39.814Z,0.89
2022-12-03T11:19:12.804Z,0.91
2022-12-03T11:22:36.689Z,0.94
2022-12-03T11:25:25.433Z,0.94
2022-12-03T11:28:10.851Z,0.95
2022-12-03T11:30:53.817Z,0.90
2022-12-03T11:33:35.901Z,0.90
2022-12-03T11:36:05.897Z,0.94
2022-12-03T11:38:43.269Z,0.91
2022-12-03T11:41:34.105Z,0.93
2022-12-03T11:44:05.101Z,0.95
2022-12-03T11:46:38.227Z,0.96
2022-12-03T11:49:33.681Z,0.96
2022-12-03T11:52:03.191Z,0.95
2022-12-03T11:54:35.822Z,0.93
2022-12-03T11:57:03.439Z,0.90
2022-12-03T11:59:30.468Z,0.89
2022-12-03T12:01:57.538Z,0.92
2022-12-03T12:04:38.248Z,0.89
2022-12-03T12:07:05.465Z,0.89
2022-12-03T12:09:53.405Z,0.92
2022-12-03T12:12:21.653Z,0.91
2022-12-03T12:14:48.594Z,0.88
2022-12-03T12:17:41.967Z,0.89
2022-12-03T12:20:25.027Z,0.87
2022-12-03T12:22:53.874Z,0.84
2022-12-03T12:25:30.154Z,0.89
2022-12-03T12:27:57.807Z,0.89
2022-12-03T12:30:24.960Z,0.91
2022-12-03T12:33:09.113Z,0.88
2022-12-03T12:35:37.225Z,0.89
2022-12-03T12:38:07.090Z,0.89
2022-12-03T12:40:40.432Z,0.90
2022-12-03T12:43:26.743Z,0.90
2022-12-03T12:46:18.551Z,0.89
2022-12-03T12:48:48.985Z,0.88
2022-12-03T12:51:20.815Z,0.86
2022-12-03T12:53:49.271Z,0.83
2022-12-03T12:56:31.216Z,0.87
2022-12-03T12:59:24.702Z,0.87
2022-12-03T13:01:51.953Z,0.88
2022-12-03T13:04:24.302Z,0.88
2022-12-03T13:06:54.405Z,0.87
2022-12-03T13:09:24.479Z,0.83
2022-12-03T13:11:57.982Z,0.85
2022-12-03T13:14:30.586Z,0.88
2022-12-03T13:17:01.134Z,0.88
2022-12-03T13:19:43.568Z,0.84
2022-12-03T13:22:21.505Z,0.84
2022-12-03T13:24:52.898Z,0.82
2022-12-03T13:27:19.939Z,0.84
2022-12-03T13:29:51.145Z,0.84
2022-12-03T13:32:27.344Z,0.85
2022-12-03T13:35:04.850Z,0.83
2022-12-03T13:37:32.130Z,0.85
2022-12-03T13:40:09.632Z,0.86
2022-12-03T13:42:39.827Z,0.85
2022-12-03T13:45:41.629Z,0.81
2022-12-03T13:48:25.512Z,0.81
2022-12-03T13:50:53.727Z,0.75
2022-12-03T13:53:40.966Z,0.72
2022-12-03T13:56:28.816Z,0.67
2022-12-03T13:59:00.856Z,0.62
2022-12-03T14:01:28.735Z,0.59
2022-12-03T14:03:56.398Z,0.57
2022-12-03T14:06:23.440Z,0.55
2022-12-03T14:08:50.662Z,0.49
2022-12-03T14:11:38.326Z,0.46
2022-12-03T14:14:05.680Z,0.43
2022-12-03T14:16:33.146Z,0.43
2022-12-03T14:19:00.546Z,0.42
2022-12-03T14:21:27.801Z,0.39
2022-12-03T14:23:55.202Z,0.36
2022-12-03T14:26:22.617Z,0.35
2022-12-03T14:28:49.970Z,0.36
2022-12-03T14:31:17.807Z,0.39
2022-12-03T14:33:44.848Z,0.40
2022-12-03T14:36:12.128Z,0.41
2022-12-03T14:38:39.364Z,0.41
2022-12-03T14:41:26.906Z,0.44
2022-12-03T14:43:54.202Z,0.44
2022-12-03T14:46:21.655Z,0.46
2022-12-03T14:48:49.272Z,0.45
2022-12-03T14:51:17.023Z,0.42
2022-12-03T14:53:44.350Z,0.47
2022-12-03T14:56:11.692Z,0.47
2022-12-03T14:58:39.509Z,0.44
2022-12-03T15:01:06.725Z,0.40
2022-12-03T15:03:33.950Z,0.39
2022-12-03T15:06:01.673Z,0.39
2022-12-03T15:08:29.374Z,0.42
2022-12-03T15:10:56.941Z,0.41
2022-12-03T15:13:24.291Z,0.40
2022-12-03T15:15:51.647Z,0.36
2022-12-03T15:18:19.161Z,0.37
2022-12-03T15:20:46.420Z,0.36
2022-12-03T15:23:14.689Z,0.35
2022-12-03T15:25:42.198Z,0.38
2022-12-03T15:28:09.702Z,0.38
2022-12-03T15:30:37.189Z,0.35
2022-12-03T15:33:05.082Z,0.38
2022-12-03T15:35:32.216Z,0.37
2022-12-03T15:38:00.442Z,0.34
2022-12-03T15:40:27.643Z,0.31
2022-12-03T15:42:55.328Z,0.28
2022-12-03T15:45:22.583Z,0.28
2022-12-03T15:47:49.862Z,0.26
2022-12-03T15:50:17.676Z,0.24
2022-12-03T15:52:45.022Z,0.24
2022-12-03T15:55:12.341Z,0.25
2022-12-03T15:57:39.439Z,0.25
2022-12-03T16:00:10.831Z,0.25
2022-12-03T16:02:38.270Z,0.19
2022-12-03T16:05:08.165Z,0.20
2022-12-03T16:07:35.328Z,0.21
2022-12-03T16:10:03.120Z,0.19
2022-12-03T16:12:30.518Z,0.19
2022-12-03T16:14:57.785Z,0.22
2022-12-03T16:17:24.914Z,0.16
2022-12-03T16:19:52.562Z,0.16
2022-12-03T16:22:20.079Z,0.14
2022-12-03T16:24:47.081Z,0.14
2022-12-03T16:27:14.136Z,0.14
2022-12-03T16:29:41.325Z,0.14
2022-12-03T16:32:08.547Z,0.11
2022-12-03T16:34:35.840Z,0.13
2022-12-03T16:37:05.314Z,0.11
2022-12-03T16:39:33.315Z,0.10
2022-12-03T16:42:00.555Z,0.14
2022-12-03T16:44:32.839Z,0.13
2022-12-03T16:47:01.818Z,0.15
2022-12-03T16:49:29.123Z,0.14
2022-12-03T16:51:56.349Z,0.16
2022-12-03T16:54:23.791Z,0.16
2022-12-03T16:56:50.902Z,0.14
2022-12-03T16:59:18.142Z,0.12
2022-12-03T17:01:45.266Z,0.09
2022-12-03T17:04:12.654Z,0.07
2022-12-03T17:06:39.953Z,0.08
2022-12-03T17:09:07.289Z,0.05
2022-12-03T17:11:34.492Z,0.06
2022-12-03T17:14:01.508Z,0.04
2022-12-03T17:16:29.147Z,0.04
2022-12-03T17:18:56.612Z,0.05
2022-12-03T17:21:23.746Z,0.05
2022-12-03T17:23:51.423Z,0.05
2022-12-03T17:26:19.424Z,0.06
2022-12-03T17:28:46.718Z,0.04
2022-12-03T17:31:14.195Z,0.05
2022-12-03T17:33:41.456Z,0.07
2022-12-03T17:36:09.007Z,0.06
2022-12-03T17:38:39.258Z,0.06
2022-12-03T17:41:07.855Z,0.04
2022-12-03T17:43:35.422Z,0.06
2022-12-03T17:46:02.805Z,0.05
2022-12-03T17:48:31.583Z,0.04
2022-12-03T17:50:58.870Z,0.05
2022-12-03T17:53:26.008Z,0.04
2022-12-03T17:55:53.056Z,0.04
2022-12-03T17:58:20.517Z,-0.01
2022-12-03T18:00:47.886Z,-0.05
2022-12-03T18:03:15.143Z,-0.02
2022-12-03T18:05:42.329Z,-0.04
2022-12-03T18:08:09.580Z,-0.04
2022-12-03T18:10:37.157Z,-0.06
2022-12-03T18:13:04.727Z,-0.05
2022-12-03T18:15:32.809Z,-0.04
2022-12-03T18:18:00.422Z,-0.06
2022-12-03T18:20:27.645Z,-0.07
2022-12-03T18:22:54.981Z,-0.03
2022-12-03T18:25:22.393Z,-0.03
2022-12-03T18:27:49.906Z,-0.01
2022-12-03T18:30:17.147Z,-0.03
2022-12-03T18:32:44.445Z,-0.03
2022-12-03T18:35:11.668Z,-0.02
2022-12-03T18:37:38.909Z,-0.02
2022-12-03T18:40:12.893Z,-0.05
2022-12-03T18:42:40.472Z,-0.05
2022-12-03T18:45:11.158Z,-0.04
2022-12-03T18:47:38.453Z,-0.05
2022-12-03T18:50:07.202Z,-0.09
2022-12-03T18:52:34.497Z,-0.09
2022-12-03T18:55:01.932Z,-0.09
2022-12-03T18:57:29.248Z,-0.13
2022-12-03T18:59:56.840Z,-0.13
2022-12-03T19:03:01.730Z,-0.09
2022-12-03T19:05:11.938Z,-0.10
2022-12-03T19:07:39.229Z,-0.11
2022-12-03T19:10:07.701Z,-0.11
2022-12-03T19:12:35.085Z,-0.13
2022-12-03T19:15:03.364Z,-0.12
2022-12-03T19:17:30.549Z,-0.13
2022-12-03T19:19:58.007Z,-0.13
2022-12-03T19:22:25.436Z,-0.11
2022-12-03T19:24:52.691Z,-0.09
2022-12-03T19:27:19.831Z,-0.11
2022-12-03T19:29:50.264Z,-0.14
2022-12-03T19:32:17.772Z,-0.16
2022-12-03T19:34:45.073Z,-0.18
2022-12-03T19:37:12.221Z,-0.19
2022-12-03T19:39:39.591Z,-0.23
2022-12-03T19:42:06.776Z,-0.23
2022-12-03T19:44:33.878Z,-0.26
2022-12-03T19:47:01.127Z,-0.27
2022-12-03T19:49:28.424Z,-0.26
2022-12-03T19:51:55.512Z,-0.27
2022-12-03T19:54:22.526Z,-0.26
2022-12-03T19:56:49.558Z,-0.27
2022-12-03T19:59:16.570Z,-0.29
2022-12-03T20:01:43.886Z,-0.29
2022-12-03T20:04:12.122Z,-0.29
2022-12-03T20:06:39.515Z,-0.27
2022-12-03T20:09:13.304Z,-0.26
2022-12-03T20:11:42.085Z,-0.29
2022-12-03T20:14:13.192Z,-0.30
2022-12-03T20:16:40.176Z,-0.32
2022-12-03T20:19:08.347Z,-0.31
2022-12-03T20:21:37.297Z,-0.31
2022-12-03T20:24:05.276Z,-0.30
2022-12-03T20:26:32.468Z,-0.30
2022-12-03T20:29:00.279Z,-0.30
2022-12-03T20:31:30.754Z,-0.27
2022-12-03T20:34:01.625Z,-0.28
2022-12-03T20:36:30.262Z,-0.29
2022-12-03T20:39:00.894Z,-0.29
2022-12-03T20:41:29.262Z,-0.29
2022-12-03T20:43:56.382Z,-0.28
2022-12-03T20:46:29.531Z,-0.28
2022-12-03T20:48:57.688Z,-0.27
2022-12-03T20:51:28.588Z,-0.29
2022-12-03T20:53:56.340Z,-0.31
2022-12-03T20:56:26.631Z,-0.31
2022-12-03T20:58:54.270Z,-0.34
2022-12-03T21:01:24.936Z,-0.38
2022-12-03T21:03:53.758Z,-0.39
2022-12-03T21:06:22.229Z,-0.38
2022-12-03T21:08:49.866Z,-0.36
2022-12-03T21:11:19.449Z,-0.41
2022-12-03T21:13:47.021Z,-0.42
2022-12-03T21:16:26.159Z,-0.42
2022-12-03T21:19:07.365Z,-0.42
2022-12-03T21:21:35.784Z,-0.41
2022-12-03T21:24:02.783Z,-0.43
2022-12-03T21:26:29.887Z,-0.43
2022-12-03T21:28:57.090Z,-0.43
2022-12-03T21:31:26.782Z,-0.44
2022-12-03T21:33:55.334Z,-0.45
2022-12-03T21:36:23.262Z,-0.44
2022-12-03T21:38:50.707Z,-0.42
2022-12-03T21:41:18.358Z,-0.41
2022-12-03T21:43:46.021Z,-0.41
2022-12-03T21:47:09.509Z,-0.43
2022-12-03T21:49:02.491Z,-0.44
2022-12-03T21:51:29.884Z,-0.43
2022-12-03T21:53:57.164Z,-0.45
2022-12-03T21:56:24.308Z,-0.42
2022-12-03T21:58:51.487Z,-0.43
2022-12-03T22:01:22.045Z,-0.43
2022-12-03T22:03:50.405Z,-0.46
2022-12-03T22:06:18.598Z,-0.45
2022-12-03T22:08:46.293Z,-0.44
2022-12-03T22:11:22.363Z,-0.43
2022-12-03T22:13:49.614Z,-0.45
2022-12-03T22:16:21.048Z,-0.46
2022-12-03T22:18:48.569Z,-0.48
2022-12-03T22:21:18.323Z,-0.47
2022-12-03T22:23:45.427Z,-0.49
2022-12-03T22:26:15.281Z,-0.48
2022-12-03T22:28:47.345Z,-0.49
2022-12-03T22:31:15.892Z,-0.48
2022-12-03T22:33:44.010Z,-0.50
2022-12-03T22:36:19.583Z,-0.49
2022-12-03T22:38:48.243Z,-0.47
2022-12-03T22:41:16.358Z,-0.47
2022-12-03T22:43:45.042Z,-0.45
2022-12-03T22:46:13.093Z,-0.43
2022-12-03T22:48:42.779Z,-0.45
2022-12-03T22:51:19.394Z,-0.43
2022-12-03T22:53:46.836Z,-0.41
2022-12-03T22:56:13.895Z,-0.42
2022-12-03T22:58:41.440Z,-0.39
2022-12-03T23:01:09.293Z,-0.39
2022-12-03T23:03:37.526Z,-0.38
2022-12-03T23:06:12.306Z,-0.40
2022-12-03T23:08:39.671Z,-0.38
2022-12-03T23:11:07.294Z,-0.37
2022-12-03T23:13:34.633Z,-0.39
2022-12-03T23:16:01.838Z,-0.41
2022-12-03T23:18:29.028Z,-0.41
2022-12-03T23:20:57.459Z,-0.36
2022-12-03T23:23:27.994Z,-0.38
2022-12-03T23:26:12.909Z,-0.38
2022-12-03T23:28:41.646Z,-0.41
2022-12-03T23:31:19.332Z,-0.45
2022-12-03T23:33:46.851Z,-0.44
2022-12-03T23:36:13.951Z,-0.44
2022-12-03T23:38:41.508Z,-0.43
2022-12-03T23:41:11.634Z,-0.40
2022-12-03T23:43:39.587Z,-0.41
2022-12-03T23:46:15.282Z,-0.39
2022-12-03T23:48:42.752Z,-0.34
2022-12-03T23:51:16.100Z,-0.35
2022-12-03T23:53:44.014Z,-0.37
2022-12-03T23:56:23.404Z,-0.35
2022-12-03T23:58:51.043Z,-0.38
